createdAt,value
2022-08-26T00:00:51.873Z,6.07
2022-08-26T00:03:21.219Z,5.57
2022-08-26T00:05:50.925Z,5.00
2022-08-26T00:08:21.429Z,5.40
2022-08-26T00:10:50.098Z,5.27
2022-08-26T00:13:19.477Z,5.33
2022-08-26T00:15:47.994Z,5.40
2022-08-26T00:18:22.049Z,5.37
2022-08-26T00:20:51.421Z,5.60
2022-08-26T00:23:20.986Z,5.47
2022-08-26T00:25:52.720Z,5.40
2022-08-26T00:28:21.502Z,5.07
2022-08-26T00:30:51.614Z,5.03
2022-08-26T00:33:21.191Z,5.07
2022-08-26T00:35:49.968Z,5.60
2022-08-26T00:38:21.788Z,5.10
2022-08-26T00:40:53.309Z,5.57
2022-08-26T00:43:24.016Z,5.60
2022-08-26T00:45:57.585Z,5.40
2022-08-26T00:48:31.811Z,5.20
2022-08-26T00:51:05.223Z,5.50
2022-08-26T00:53:41.367Z,5.67
2022-08-26T00:56:18.212Z,5.63
2022-08-26T00:58:48.015Z,5.27
2022-08-26T01:01:17.061Z,5.87
2022-08-26T01:03:47.335Z,5.60
2022-08-26T01:06:16.394Z,5.30
2022-08-26T01:08:46.556Z,5.27
2022-08-26T01:11:15.174Z,6.17
2022-08-26T01:13:45.080Z,7.70
2022-08-26T01:16:16.844Z,9.17
2022-08-26T01:18:46.856Z,9.87
2022-08-26T01:21:21.345Z,11.23
2022-08-26T01:23:57.736Z,11.13
2022-08-26T01:26:29.760Z,10.43
2022-08-26T01:29:01.374Z,7.90
2022-08-26T01:31:33.526Z,6.70
2022-08-26T01:34:06.762Z,5.80
2022-08-26T01:36:38.514Z,6.03
2022-08-26T01:39:09.396Z,6.27
2022-08-26T01:41:40.593Z,5.90
2022-08-26T01:44:18.537Z,5.70
2022-08-26T01:46:49.961Z,5.50
2022-08-26T01:49:20.457Z,5.70
2022-08-26T01:51:51.477Z,5.90
2022-08-26T01:54:23.116Z,6.20
2022-08-26T01:56:51.952Z,5.70
2022-08-26T01:59:21.721Z,5.90
2022-08-26T02:01:50.365Z,5.90
2022-08-26T02:04:25.359Z,5.73
2022-08-26T02:06:56.513Z,5.90
2022-08-26T02:09:26.791Z,6.07
2022-08-26T02:11:55.684Z,5.90
2022-08-26T02:14:27.128Z,5.47
2022-08-26T02:16:56.897Z,5.63
2022-08-26T02:19:30.981Z,5.77
2022-08-26T02:22:02.581Z,5.77
2022-08-26T02:24:50.898Z,5.53
2022-08-26T02:27:22.259Z,5.63
2022-08-26T02:29:56.041Z,5.97
2022-08-26T02:32:24.514Z,5.30
2022-08-26T02:34:53.180Z,5.50
2022-08-26T02:37:23.031Z,5.53
2022-08-26T02:39:52.712Z,5.57
2022-08-26T02:42:20.929Z,5.40
2022-08-26T02:44:49.167Z,5.93
2022-08-26T02:47:17.846Z,5.73
2022-08-26T02:49:47.694Z,6.00
2022-08-26T02:52:16.949Z,6.10
2022-08-26T02:54:45.528Z,5.77
2022-08-26T02:57:15.208Z,5.83
2022-08-26T02:59:43.582Z,5.57
2022-08-26T03:02:12.553Z,6.17
2022-08-26T03:04:42.019Z,6.27
2022-08-26T03:07:26.647Z,5.83
2022-08-26T03:09:55.081Z,6.07
2022-08-26T03:12:25.652Z,5.70
2022-08-26T03:14:54.137Z,5.70
2022-08-26T03:17:22.466Z,5.73
2022-08-26T03:19:54.673Z,6.00
2022-08-26T03:22:27.110Z,6.47
2022-08-26T03:24:55.493Z,6.10
2022-08-26T03:27:25.155Z,6.20
2022-08-26T03:30:11.732Z,6.37
2022-08-26T03:32:41.472Z,6.47
2022-08-26T03:35:10.200Z,6.37
2022-08-26T03:37:38.704Z,6.70
2022-08-26T03:40:09.072Z,5.57
2022-08-26T03:42:39.394Z,6.30
2022-08-26T03:45:10.517Z,6.20
2022-08-26T03:47:39.326Z,5.80
2022-08-26T03:50:09.770Z,5.87
2022-08-26T03:52:43.541Z,5.90
2022-08-26T03:55:12.603Z,6.27
2022-08-26T03:57:42.384Z,6.20
2022-08-26T04:00:14.692Z,6.57
2022-08-26T04:02:51.203Z,6.00
2022-08-26T04:05:23.259Z,6.27
2022-08-26T04:07:51.925Z,6.10
2022-08-26T04:10:28.922Z,6.57
2022-08-26T04:13:00.592Z,6.50
2022-08-26T04:15:29.140Z,6.40
2022-08-26T04:17:57.759Z,6.23
2022-08-26T04:20:26.406Z,6.33
2022-08-26T04:22:54.919Z,6.17
2022-08-26T04:25:24.301Z,6.57
2022-08-26T04:27:52.944Z,6.07
2022-08-26T04:30:22.606Z,5.80
2022-08-26T04:32:50.934Z,6.07
2022-08-26T04:35:25.431Z,5.80
2022-08-26T04:37:55.490Z,6.57
2022-08-26T04:40:24.301Z,5.90
2022-08-26T04:42:54.168Z,6.30
2022-08-26T04:45:24.506Z,6.23
2022-08-26T04:47:56.760Z,6.50
2022-08-26T04:50:27.018Z,6.40
2022-08-26T04:52:56.155Z,5.77
2022-08-26T04:55:38.605Z,7.03
2022-08-26T04:58:11.869Z,6.47
2022-08-26T05:00:41.443Z,6.27
2022-08-26T05:03:09.669Z,6.50
2022-08-26T05:05:41.056Z,6.43
2022-08-26T05:08:10.049Z,6.90
2022-08-26T05:10:43.714Z,6.33
2022-08-26T05:13:15.145Z,6.60
2022-08-26T05:15:45.505Z,5.77
2022-08-26T05:18:16.359Z,5.40
2022-08-26T05:20:46.937Z,6.20
2022-08-26T05:23:16.187Z,6.40
2022-08-26T05:25:47.226Z,6.10
2022-08-26T05:28:18.028Z,5.53
2022-08-26T05:30:47.861Z,5.93
2022-08-26T05:33:16.873Z,6.10
2022-08-26T05:35:46.929Z,6.40
2022-08-26T05:38:17.823Z,6.13
2022-08-26T05:40:49.084Z,6.13
2022-08-26T05:43:22.661Z,6.37
2022-08-26T05:45:52.365Z,5.87
2022-08-26T05:48:22.738Z,5.63
2022-08-26T05:50:53.879Z,6.40
2022-08-26T05:53:23.885Z,6.50
2022-08-26T05:55:56.075Z,6.50
2022-08-26T05:58:24.855Z,6.47
2022-08-26T06:01:02.924Z,6.57
2022-08-26T06:03:31.881Z,5.87
2022-08-26T06:06:00.222Z,6.27
2022-08-26T06:08:28.591Z,6.40
2022-08-26T06:11:01.588Z,6.00
2022-08-26T06:13:32.076Z,6.20
2022-08-26T06:16:04.882Z,6.23
2022-08-26T06:18:36.448Z,6.20
2022-08-26T06:21:15.185Z,6.10
2022-08-26T06:24:01.624Z,6.20
2022-08-26T06:26:30.548Z,5.83
2022-08-26T06:28:58.913Z,5.63
2022-08-26T06:31:28.823Z,5.60
2022-08-26T06:33:58.288Z,5.70
2022-08-26T06:36:28.418Z,5.67
2022-08-26T06:39:00.312Z,5.77
2022-08-26T06:41:28.601Z,5.80
2022-08-26T06:43:57.873Z,6.07
2022-08-26T06:46:26.220Z,5.50
2022-08-26T06:48:58.147Z,5.80
2022-08-26T06:51:28.172Z,5.23
2022-08-26T06:53:59.538Z,4.93
2022-08-26T06:56:30.018Z,5.30
2022-08-26T06:58:58.181Z,5.23
2022-08-26T07:01:28.214Z,5.13
2022-08-26T07:04:00.494Z,5.20
2022-08-26T07:06:29.693Z,5.50
2022-08-26T07:09:03.970Z,5.20
2022-08-26T07:11:33.791Z,5.03
2022-08-26T07:14:02.050Z,5.80
2022-08-26T07:16:30.816Z,5.30
2022-08-26T07:19:01.114Z,5.57
2022-08-26T07:21:31.691Z,5.60
2022-08-26T07:24:01.459Z,5.50
2022-08-26T07:26:31.899Z,5.15
2022-08-26T07:29:01.787Z,4.78
2022-08-26T07:31:39.564Z,5.35
2022-08-26T07:34:13.858Z,5.60
2022-08-26T07:36:42.461Z,5.38
2022-08-26T07:39:10.666Z,5.05
2022-08-26T07:41:38.878Z,5.13
2022-08-26T07:44:07.352Z,5.20
2022-08-26T07:46:36.907Z,4.85
2022-08-26T07:49:05.732Z,4.90
2022-08-26T07:51:37.168Z,5.68
2022-08-26T07:54:05.852Z,5.00
2022-08-26T07:56:34.295Z,5.03
2022-08-26T07:59:02.618Z,4.80
2022-08-26T08:01:31.511Z,4.70
2022-08-26T08:04:01.508Z,4.75
2022-08-26T08:06:30.575Z,4.38
2022-08-26T08:09:05.495Z,5.30
2022-08-26T08:11:35.133Z,5.05
2022-08-26T08:14:08.426Z,4.93
2022-08-26T08:16:40.191Z,5.20
2022-08-26T08:19:14.652Z,4.72
2022-08-26T08:21:43.213Z,4.47
2022-08-26T08:24:12.979Z,4.88
2022-08-26T08:26:41.846Z,4.60
2022-08-26T08:29:10.134Z,4.07
2022-08-26T08:31:56.908Z,4.63
2022-08-26T08:34:28.572Z,4.50
2022-08-26T08:37:10.672Z,4.78
2022-08-26T08:39:44.936Z,4.40
2022-08-26T08:45:47.225Z,4.40
2022-08-26T08:48:27.309Z,4.63
2022-08-26T08:51:03.450Z,4.32
2022-08-26T08:53:35.349Z,3.67
2022-08-26T08:56:16.162Z,4.72
2022-08-26T08:58:53.673Z,4.80
2022-08-26T09:01:39.457Z,4.90
2022-08-26T09:04:26.200Z,4.43
2022-08-26T09:09:31.774Z,4.45
2022-08-26T09:12:03.619Z,4.20
2022-08-26T09:14:32.800Z,4.63
2022-08-26T09:17:08.820Z,4.47
2022-08-26T09:19:43.784Z,4.75
2022-08-26T09:22:12.070Z,4.20
2022-08-26T09:24:48.301Z,4.45
2022-08-26T09:27:38.328Z,3.55
2022-08-26T09:30:08.483Z,4.20
2022-08-26T09:32:40.098Z,4.30
2022-08-26T09:35:11.530Z,4.47
2022-08-26T09:37:42.804Z,4.65
2022-08-26T09:40:19.101Z,4.30
2022-08-26T09:43:11.373Z,4.00
2022-08-26T09:45:41.691Z,4.05
2022-08-26T09:48:30.250Z,4.18
2022-08-26T09:51:01.397Z,4.07
2022-08-26T09:53:31.631Z,4.65
2022-08-26T09:56:17.569Z,4.20
2022-08-26T09:58:48.912Z,3.88
2022-08-26T10:01:26.853Z,4.35
2022-08-26T10:04:07.289Z,3.83
2022-08-26T10:06:39.411Z,3.70
2022-08-26T10:09:10.849Z,3.97
2022-08-26T10:11:43.635Z,4.15
2022-08-26T10:14:18.444Z,4.20
2022-08-26T10:16:51.836Z,4.03
2022-08-26T10:19:41.811Z,4.05
2022-08-26T10:22:28.953Z,4.18
2022-08-26T10:25:04.311Z,3.97
2022-08-26T10:27:42.663Z,3.58
2022-08-26T10:30:23.767Z,3.90
2022-08-26T10:32:54.480Z,4.00
2022-08-26T10:35:23.670Z,4.00
2022-08-26T10:37:55.854Z,3.80
2022-08-26T10:40:28.661Z,3.78
2022-08-26T10:43:08.528Z,4.22
2022-08-26T10:45:45.271Z,4.18
2022-08-26T10:48:18.283Z,4.10
2022-08-26T10:50:48.470Z,4.13
2022-08-26T10:53:24.960Z,4.07
2022-08-26T10:56:01.077Z,3.95
2022-08-26T10:58:55.469Z,3.85
2022-08-26T11:01:47.169Z,4.03
2022-08-26T11:04:38.554Z,4.30
2022-08-26T11:07:36.773Z,4.35
2022-08-26T11:10:09.054Z,3.90
2022-08-26T11:12:55.965Z,3.70
2022-08-26T11:16:08.364Z,3.80
2022-08-26T11:18:56.048Z,4.32
2022-08-26T11:21:54.089Z,3.95
2022-08-26T11:25:03.415Z,3.83
2022-08-26T11:28:05.241Z,3.88
2022-08-26T11:30:57.730Z,3.72
2022-08-26T11:33:49.297Z,4.07
2022-08-26T11:36:57.406Z,3.78
2022-08-26T11:39:31.865Z,3.83
2022-08-26T11:42:20.206Z,4.28
2022-08-26T11:44:49.862Z,3.92
2022-08-26T11:47:28.802Z,3.95
2022-08-26T11:50:18.133Z,4.10
2022-08-26T11:52:56.401Z,3.95
2022-08-26T11:55:25.514Z,4.22
2022-08-26T11:57:56.436Z,3.80
2022-08-26T12:00:33.316Z,4.10
2022-08-26T12:03:07.831Z,3.53
2022-08-26T12:05:39.486Z,3.97
2022-08-26T12:08:12.364Z,3.72
2022-08-26T12:10:40.587Z,4.07
2022-08-26T12:13:17.739Z,3.83
2022-08-26T12:15:53.622Z,4.75
2022-08-26T12:18:28.745Z,3.83
2022-08-26T12:21:01.367Z,3.80
2022-08-26T12:23:44.120Z,3.90
2022-08-26T12:26:20.672Z,3.88
2022-08-26T12:28:51.991Z,3.58
2022-08-26T12:31:26.880Z,4.03
2022-08-26T12:33:56.903Z,4.22
2022-08-26T12:36:31.625Z,3.63
2022-08-26T12:39:09.515Z,3.80
2022-08-26T12:41:48.053Z,3.90
2022-08-26T12:44:53.277Z,3.90
2022-08-26T12:47:39.045Z,3.47
2022-08-26T12:50:18.637Z,3.63
2022-08-26T12:52:58.016Z,3.45
2022-08-26T12:55:36.581Z,3.53
2022-08-26T12:58:25.100Z,3.80
2022-08-26T13:00:55.235Z,3.97
2022-08-26T13:03:32.345Z,3.67
2022-08-26T13:06:25.889Z,3.70
2022-08-26T13:08:56.254Z,3.67
2022-08-26T13:11:28.624Z,3.35
2022-08-26T13:14:00.049Z,3.47
2022-08-26T13:16:29.129Z,3.63
2022-08-26T13:18:59.559Z,4.03
2022-08-26T13:21:32.030Z,2.90
2022-08-26T13:24:09.261Z,2.90
2022-08-26T13:26:39.232Z,3.25
2022-08-26T13:29:10.298Z,2.90
2022-08-26T13:31:40.982Z,3.03
2022-08-26T13:34:10.509Z,2.97
2022-08-26T13:36:39.215Z,2.90
2022-08-26T13:39:08.086Z,2.53
2022-08-26T13:41:36.809Z,2.58
2022-08-26T13:44:07.049Z,2.65
2022-08-26T13:46:35.570Z,3.65
2022-08-26T13:49:04.532Z,2.85
2022-08-26T13:51:36.932Z,2.90
2022-08-26T13:54:06.250Z,3.05
2022-08-26T13:56:35.772Z,3.20
2022-08-26T13:59:04.890Z,3.20
2022-08-26T14:01:36.173Z,3.63
2022-08-26T14:04:05.160Z,4.82
2022-08-26T14:06:33.651Z,6.43
2022-08-26T14:09:02.285Z,4.00
2022-08-26T14:11:34.776Z,3.92
2022-08-26T14:14:19.227Z,4.15
2022-08-26T14:16:59.154Z,4.20
2022-08-26T14:19:29.735Z,4.22
2022-08-26T14:21:58.906Z,4.00
2022-08-26T14:24:27.448Z,4.30
2022-08-26T14:26:55.828Z,4.30
2022-08-26T14:29:24.259Z,3.80
2022-08-26T14:31:54.685Z,4.40
2022-08-26T14:34:23.060Z,4.10
2022-08-26T14:36:54.331Z,4.60
2022-08-26T14:39:22.920Z,4.20
2022-08-26T14:41:56.128Z,4.20
2022-08-26T14:44:28.677Z,4.32
2022-08-26T14:47:01.084Z,4.15
2022-08-26T14:49:31.327Z,4.72
2022-08-26T14:51:59.813Z,4.40
2022-08-26T14:54:29.509Z,5.15
2022-08-26T14:57:01.330Z,4.55
2022-08-26T14:59:32.799Z,5.22
2022-08-26T15:02:02.850Z,4.80
2022-08-26T15:04:31.349Z,4.63
2022-08-26T15:07:01.118Z,5.20
2022-08-26T15:09:31.357Z,5.20
2022-08-26T15:11:59.906Z,4.70
2022-08-26T15:14:32.855Z,4.80
2022-08-26T15:17:02.993Z,4.80
2022-08-26T15:19:31.379Z,5.05
2022-08-26T15:21:59.846Z,4.70
2022-08-26T15:24:28.951Z,5.20
2022-08-26T15:26:57.409Z,5.15
2022-08-26T15:29:25.849Z,4.97
2022-08-26T15:31:57.345Z,5.28
2022-08-26T15:34:27.701Z,5.10
2022-08-26T15:36:56.162Z,4.72
2022-08-26T15:39:24.685Z,5.20
2022-08-26T15:41:52.959Z,5.45
2022-08-26T15:44:21.247Z,5.18
2022-08-26T15:46:51.812Z,5.50
2022-08-26T15:49:23.425Z,5.63
2022-08-26T15:51:53.114Z,5.35
2022-08-26T15:54:24.027Z,5.00
2022-08-26T15:56:53.818Z,5.82
2022-08-26T15:59:26.391Z,5.00
2022-08-26T16:01:57.083Z,5.00
2022-08-26T16:04:26.821Z,4.72
2022-08-26T16:07:01.323Z,5.03
2022-08-26T16:13:43.605Z,5.22
2022-08-26T16:16:13.011Z,4.45
2022-08-26T16:18:42.599Z,5.15
2022-08-26T16:21:16.016Z,4.88
2022-08-26T16:23:46.403Z,5.10
2022-08-26T16:26:16.900Z,4.95
2022-08-26T16:28:45.412Z,5.47
2022-08-26T16:31:14.508Z,5.32
2022-08-26T18:26:23.510Z,7.43
2022-08-26T18:28:51.790Z,7.68
2022-08-26T18:31:21.895Z,7.43
2022-08-26T18:33:51.501Z,6.97
2022-08-26T18:36:22.259Z,7.72
2022-08-26T18:38:51.664Z,7.35
2022-08-26T18:41:22.773Z,7.22
2022-08-26T18:43:53.086Z,7.53
2022-08-26T18:46:22.910Z,7.45
2022-08-26T18:48:51.451Z,7.85
2022-08-26T18:51:22.640Z,7.43
2022-08-26T18:53:55.661Z,7.78
2022-08-26T18:56:32.445Z,7.93
2022-08-26T18:59:01.554Z,8.13
2022-08-26T19:01:31.130Z,8.55
2022-08-26T19:04:01.314Z,8.73
2022-08-26T19:06:31.670Z,7.95
2022-08-26T19:11:48.803Z,8.20
2022-08-26T19:14:19.302Z,8.70
2022-08-26T19:16:49.615Z,9.32
2022-08-26T19:19:18.133Z,8.68
2022-08-26T19:21:47.461Z,8.70
2022-08-26T19:24:18.705Z,8.63
2022-08-26T19:26:50.374Z,9.05
2022-08-26T19:29:36.783Z,9.05
2022-08-26T19:32:06.292Z,8.52
2022-08-26T19:34:34.592Z,9.23
2022-08-26T19:37:02.874Z,9.38
2022-08-26T19:39:31.197Z,8.48
2022-08-26T19:42:00.813Z,9.60
2022-08-26T19:44:46.658Z,9.02
2022-08-26T19:47:15.799Z,8.88
2022-08-26T19:49:44.372Z,8.65
2022-08-26T19:52:12.936Z,8.77
2022-08-26T19:54:41.503Z,8.85
2022-08-26T19:57:12.624Z,9.48
2022-08-26T19:59:41.635Z,8.15
2022-08-26T20:02:11.019Z,8.85
2022-08-26T20:04:40.490Z,9.18
2022-08-26T20:07:12.021Z,8.98
2022-08-26T20:09:41.876Z,9.40
2022-08-26T20:12:11.886Z,9.65
2022-08-26T20:14:43.032Z,9.80
2022-08-26T20:17:12.001Z,9.77
2022-08-26T20:20:14.668Z,10.55
2022-08-26T20:22:56.649Z,9.82
2022-08-26T20:25:25.714Z,10.30
2022-08-26T20:27:55.356Z,9.95
2022-08-26T20:30:23.876Z,10.77
2022-08-26T20:32:52.386Z,10.70
2022-08-26T20:35:20.652Z,10.57
2022-08-26T20:37:48.931Z,11.93
2022-08-26T20:40:17.489Z,11.80
2022-08-26T20:42:45.797Z,11.50
2022-08-26T20:45:27.486Z,12.15
2022-08-26T20:47:55.749Z,12.32
2022-08-26T20:50:24.244Z,12.15
2022-08-26T20:52:53.557Z,11.88
2022-08-26T20:55:22.308Z,12.15
2022-08-26T20:57:51.067Z,12.82
2022-08-26T21:00:22.997Z,12.40
2022-08-26T21:02:54.958Z,11.53
2022-08-26T21:05:23.462Z,11.30
2022-08-26T21:07:55.076Z,10.60
2022-08-26T21:10:23.297Z,10.40
2022-08-26T21:12:51.876Z,9.93
2022-08-26T21:15:22.282Z,9.13
2022-08-26T21:17:52.617Z,9.53
2022-08-26T21:20:21.351Z,9.23
2022-08-26T21:23:02.504Z,9.73
2022-08-26T21:25:30.777Z,10.13
2022-08-26T21:27:59.142Z,8.80
2022-08-26T21:30:29.025Z,9.30
2022-08-26T21:32:57.300Z,9.07
2022-08-26T21:35:25.555Z,9.40
2022-08-26T21:37:53.840Z,9.03
2022-08-26T21:40:22.196Z,9.27
2022-08-26T21:42:50.468Z,9.30
2022-08-26T21:45:18.885Z,9.20
2022-08-26T21:47:48.571Z,8.53
2022-08-26T21:50:17.246Z,9.10
2022-08-26T21:52:45.491Z,8.97
2022-08-26T21:55:13.911Z,9.33
2022-08-26T21:57:42.238Z,8.80
2022-08-26T22:00:13.221Z,8.73
2022-08-26T22:02:41.512Z,8.83
2022-08-26T22:05:11.736Z,9.00
2022-08-26T22:07:39.999Z,8.27
2022-08-26T22:10:09.431Z,8.47
2022-08-26T22:12:38.748Z,9.47
2022-08-26T22:15:08.337Z,8.63
2022-08-26T22:17:36.682Z,8.23
2022-08-26T22:20:06.128Z,8.27
2022-08-26T22:22:41.007Z,8.53
2022-08-26T22:25:11.252Z,8.60
2022-08-26T22:27:40.449Z,8.80
2022-08-26T22:30:11.874Z,8.87
2022-08-26T22:32:40.463Z,8.07
2022-08-26T22:35:28.054Z,8.83
2022-08-26T22:37:59.881Z,8.87
2022-08-26T22:40:28.459Z,9.03
2022-08-26T22:43:00.059Z,8.60
2022-08-26T22:45:29.341Z,9.30
2022-08-26T22:47:58.591Z,9.43
2022-08-26T22:50:27.416Z,8.93
2022-08-26T22:52:55.674Z,9.07
2022-08-26T22:55:25.286Z,9.17
2022-08-26T22:57:53.620Z,9.20
2022-08-26T23:00:21.985Z,9.27
2022-08-26T23:03:01.046Z,9.13
2022-08-26T23:05:29.868Z,9.53
2022-08-26T23:07:58.139Z,8.80
2022-08-26T23:10:27.746Z,9.20
2022-08-26T23:12:55.992Z,9.47
2022-08-26T23:15:24.408Z,8.43
2022-08-26T23:18:09.257Z,8.53
2022-08-26T23:20:38.529Z,9.53
2022-08-26T23:23:06.742Z,8.97
2022-08-26T23:25:36.335Z,9.60
2022-08-26T23:28:05.564Z,9.57
2022-08-26T23:30:34.517Z,9.23
2022-08-26T23:33:02.906Z,8.80
2022-08-26T23:35:30.233Z,9.07
2022-08-26T23:37:59.014Z,9.43
2022-08-26T23:40:29.315Z,8.97
2022-08-26T23:43:00.026Z,8.87
2022-08-26T23:45:29.007Z,9.10
2022-08-26T23:47:57.523Z,9.23
2022-08-26T23:50:49.034Z,8.70
2022-08-26T23:53:21.384Z,8.60
2022-08-26T23:55:52.590Z,9.60
2022-08-26T23:58:22.988Z,9.37
